Time;durP1;ratioP1;P1;durP2;ratioP2;P2;SDS_P1;SDS_P2;PMS_P1;PMS_P2;Temp;Humidity;BMP_temperature;BMP_pressure;BME280_temperature;BME280_humidity;BME280_pressure;Samples;Min_cycle;Max_cycle;Signal;HPM_P1;HPM_P2
2022/01/20 00:00:43;;;;;;;;;;;;;;;;;;;;;
2022/01/20 00:27:49;;;;;;;;;30.50;29.25;;;;;7.94;73.51;102578.63;6215431;22;45462;-85
2022/01/20 00:33:02;;;;;;;;;30.75;27.00;;;;;7.93;73.51;102582.06;6215267;22;45462;-86
2022/01/20 00:37:15;;;;;;;;;30.25;25.25;;;;;7.92;73.20;102593.41;6214048;22;45409;-86
2022/01/20 00:38:18;;;;;;;;;29.25;25.25;;;;;7.80;73.32;102569.34;6217934;22;45194;-85
2022/01/20 00:40:46;;;;;;;;;30.75;27.75;;;;;7.78;73.42;102554.41;6213493;22;45214;-86
2022/01/20 00:43:12;;;;;;;;;28.00;25.50;;;;;7.81;73.28;102573.78;6189826;22;45662;-87
2022/01/20 00:45:37;;;;;;;;;27.75;27.75;;;;;7.70;73.13;102556.75;6217160;22;45370;-88
2022/01/20 00:48:10;;;;;;;;;25.75;24.50;;;;;7.75;73.37;102573.53;6191639;22;45257;-88
2022/01/20 00:50:43;;;;;;;;;28.00;25.00;;;;;7.60;73.43;102549.38;6215508;22;45406;-87
2022/01/20 00:53:13;;;;;;;;;31.50;26.00;;;;;7.64;73.23;102561.75;6215780;22;45384;-87
2022/01/20 00:55:41;;;;;;;;;34.50;28.75;;;;;7.74;73.19;102585.75;6189427;22;47164;-87
2022/01/20 00:58:27;;;;;;;;;;;;;;;;;;;;;
2022/01/20 01:00:56;;;;;;;;;26.50;26.50;;;;;7.74;73.27;102579.63;6213152;22;67962;-86
2022/01/20 01:09:44;;;;;;;;;;;;;;;;;;;;;
2022/01/20 01:12:27;;;;;;;;;;;;;;;;;;;;;
2022/01/20 01:15:18;;;;;;;;;29.75;25.75;;;;;7.49;73.05;102577.81;6217973;22;72184;-85
2022/01/20 01:23:54;;;;;;;;;29.25;26.50;;;;;7.44;73.23;102608.16;6219652;22;45198;-84
2022/01/20 01:26:22;;;;;;;;;29.00;26.25;;;;;7.40;73.14;102621.97;6214023;22;45500;-84
2022/01/20 01:28:50;;;;;;;;;29.00;26.50;;;;;7.27;72.97;102615.34;6216496;22;47826;-85
2022/01/20 01:31:39;;;;;;;;;34.00;29.25;;;;;7.22;73.50;102611.69;6221714;22;45174;-84
2022/01/20 01:34:09;;;;;;;;;34.50;27.50;;;;;7.34;73.37;102648.81;6218379;22;45371;-84
2022/01/20 01:37:02;;;;;;;;;;;;;;;;;;;;;
2022/01/20 01:39:58;;;;;;;;;;;;;;;;;;;;;
2022/01/20 01:42:56;;;;;;;;;;;;;;;;;;;;;
2022/01/20 01:45:39;;;;;;;;;;;;;;;;;;;;;
2022/01/20 01:48:15;;;;;;;;;27.50;23.75;;;;;7.14;73.22;102634.03;6219377;22;71576;-85
2022/01/20 01:50:45;;;;;;;;;37.50;29.25;;;;;7.11;73.53;102640.06;6190822;22;46852;-84
2022/01/20 01:53:16;;;;;;;;;32.75;25.50;;;;;6.91;73.38;102627.84;6218571;22;45225;-84
2022/01/20 01:55:45;;;;;;;;;35.25;30.25;;;;;6.93;73.49;102650.66;6219930;22;45225;-84
2022/01/20 01:58:25;;;;;;;;;;;;;;;;;;;;;
2022/01/20 02:01:00;;;;;;;;;24.50;23.00;;;;;6.96;73.30;102673.44;6216657;22;74126;-84
2022/01/20 02:03:43;;;;;;;;;;;;;;;;;;;;;
2022/01/20 02:20:33;;;;;;;;;27.00;21.50;;;;;6.63;73.39;102664.22;6218031;22;45395;-84
2022/01/20 02:23:06;;;;;;;;;28.75;25.25;;;;;6.75;73.29;102684.78;6192297;22;46387;-84
2022/01/20 02:25:46;;;;;;;;;;;;;;;;;;;;;
2022/01/20 02:28:17;;;;;;;;;26.25;22.75;;;;;6.52;73.23;102662.88;6217315;22;69133;-84
2022/01/20 02:30:53;;;;;;;;;20.25;20.25;;;;;6.61;73.26;102686.81;6219195;22;45312;-84
2022/01/20 02:33:26;;;;;;;;;21.75;19.50;;;;;6.44;73.42;102666.84;6217979;22;45215;-85
2022/01/20 02:36:03;;;;;;;;;28.50;23.50;;;;;6.44;73.30;102665.94;6189748;22;45375;-85
2022/01/20 02:38:49;;;;;;;;;23.50;20.50;;;;;6.51;73.43;102688.94;6220435;22;45214;-85
2022/01/20 02:47:14;;;;;;;;;24.25;21.00;;;;;6.36;72.87;102652.53;6219586;22;45246;-83
2022/01/20 02:49:55;;;;;;;;;21.25;18.50;;;;;6.37;72.85;102657.84;6192233;22;45403;-84
2022/01/20 02:52:24;;;;;;;;;17.00;17.00;;;;;6.34;73.00;102642.00;6190363;22;45537;-85
2022/01/20 02:54:58;;;;;;;;;23.00;18.50;;;;;6.50;72.83;102674.09;6216899;22;45284;-84
2022/01/20 02:57:28;;;;;;;;;23.25;16.50;;;;;6.46;72.90;102661.69;6193764;22;45371;-84
2022/01/20 02:59:56;;;;;;;;;11.00;11.00;;;;;6.27;72.92;102637.31;6215613;22;45471;-85
2022/01/20 03:02:29;;;;;;;;;17.75;16.25;;;;;6.24;72.75;102642.41;6191101;22;45449;-84
2022/01/20 03:05:07;;;;;;;;;18.00;16.00;;;;;6.31;72.66;102652.34;6216364;22;47272;-85
2022/01/20 03:07:39;;;;;;;;;27.75;17.75;;;;;6.42;72.60;102680.69;6191771;22;45222;-85
2022/01/20 03:10:09;;;;;;;;;18.25;17.50;;;;;6.40;73.04;102673.66;6189967;22;45356;-83
2022/01/20 03:12:37;;;;;;;;;21.25;18.50;;;;;6.19;72.47;102652.66;6190165;22;45503;-84
2022/01/20 03:15:03;;;;;;;;;24.75;19.00;;;;;6.34;72.96;102690.81;6193768;22;48489;-84
2022/01/20 03:17:30;;;;;;;;;23.50;19.00;;;;;6.21;72.67;102667.56;6190048;22;45577;-84
2022/01/20 03:20:10;;;;;;;;;27.00;23.25;;;;;6.17;72.90;102667.41;6217786;22;45364;-84
2022/01/20 03:22:46;;;;;;;;;21.25;20.00;;;;;6.27;72.80;102702.72;6191192;22;45186;-84
2022/01/20 03:28:08;;;;;;;;;22.75;20.75;;;;;6.08;72.78;102677.44;6190180;22;45230;-84
2022/01/20 03:30:54;;;;;;;;;;;;;;;;;;;;;
2022/01/20 03:33:25;;;;;;;;;21.00;19.25;;;;;5.97;72.53;102657.75;6218267;22;70784;-83
2022/01/20 03:35:53;;;;;;;;;19.50;16.75;;;;;6.15;72.76;102702.16;6189919;22;48069;-84
2022/01/20 03:38:19;;;;;;;;;21.75;18.00;;;;;6.08;72.74;102702.69;6217261;22;45225;-84
2022/01/20 03:40:50;;;;;;;;;24.25;17.25;;;;;6.08;72.94;102703.59;6192075;22;45420;-84
2022/01/20 03:43:28;;;;;;;;;21.00;18.00;;;;;5.89;72.78;102674.78;6217019;22;45338;-84
2022/01/20 03:45:56;;;;;;;;;20.50;17.25;;;;;5.91;72.63;102678.38;6217602;22;45239;-84
2022/01/20 03:48:49;;;;;;;;;16.75;16.50;;;;;5.96;72.76;102696.09;6189666;22;45325;-84
2022/01/20 03:51:34;;;;;;;;;18.75;15.00;;;;;5.91;72.80;102688.81;6194004;22;45323;-84
2022/01/20 03:54:08;;;;;;;;;21.75;19.75;;;;;5.96;72.99;102723.91;6190236;22;45426;-84
2022/01/20 03:56:34;;;;;;;;;18.75;16.50;;;;;5.80;72.98;102695.22;6190177;22;47183;-84
2022/01/20 03:59:04;;;;;;;;;16.50;13.50;;;;;5.87;72.70;102703.44;6193942;22;45339;-84
2022/01/20 04:01:38;;;;;;;;;16.25;15.50;;;;;5.73;72.92;102694.94;6191006;22;45170;-84
2022/01/20 04:04:09;;;;;;;;;16.25;14.50;;;;;5.70;73.10;102697.44;6190451;22;45595;-84
2022/01/20 04:06:44;;;;;;;;;15.75;12.75;;;;;5.80;72.93;102727.53;6219634;22;45430;-84
2022/01/20 04:09:15;;;;;;;;;15.50;15.50;;;;;5.79;73.03;102732.66;6219294;22;45268;-84
2022/01/20 04:11:47;;;;;;;;;13.50;12.00;;;;;5.64;72.83;102706.66;6217626;22;45573;-84
2022/01/20 04:14:34;;;;;;;;;;;;;;;;;;;;;
2022/01/20 04:17:17;;;;;;;;;14.25;12.00;;;;;5.69;72.88;102718.25;6218065;22;75117;-85
2022/01/20 04:19:55;;;;;;;;;14.50;14.25;;;;;5.72;73.00;102729.75;6217551;22;45352;-84
2022/01/20 04:22:31;;;;;;;;;17.50;14.75;;;;;5.64;73.07;102727.56;6190148;22;45218;-84
2022/01/20 04:25:28;;;;;;;;;16.75;15.00;;;;;5.71;72.82;102740.13;6192800;22;45206;-85
2022/01/20 04:27:55;;;;;;;;;20.25;17.25;;;;;5.53;72.71;102707.06;6214617;22;46330;-84
2022/01/20 04:30:33;;;;;;;;;15.75;13.50;;;;;5.65;72.61;102732.00;6217424;22;45375;-84
2022/01/20 04:33:04;;;;;;;;;18.00;13.00;;;;;5.59;72.79;102727.38;6193134;22;45307;-84
2022/01/20 04:35:31;;;;;;;;;16.75;11.00;;;;;5.70;72.74;102746.19;6189762;22;45533;-84
2022/01/20 04:38:06;;;;;;;;;13.00;13.00;;;;;5.58;72.81;102720.34;6190047;22;47178;-84
2022/01/20 04:41:08;;;;;;;;;11.25;9.75;;;;;5.71;72.42;102754.09;6220337;22;45237;-85
2022/01/20 04:44:30;;;;;;;;;;;;;;;;;;;;;
2022/01/20 04:47:29;;;;;;;;;;;;;;;;;;;;;
2022/01/20 04:58:33;;;;;;;;;15.75;13.50;;;;;5.44;71.95;102735.34;6218606;22;45305;-85
2022/01/20 05:01:09;;;;;;;;;11.25;9.50;;;;;5.62;71.73;102761.47;6190014;22;47184;-84
2022/01/20 05:03:49;;;;;;;;;;;;;;;;;;;;;
2022/01/20 05:06:28;;;;;;;;;12.50;11.75;;;;;5.55;71.90;102762.00;6215417;22;67535;-83
2022/01/20 05:09:10;;;;;;;;;8.25;8.25;;;;;5.37;71.77;102722.78;6189215;22;45607;-84
2022/01/20 05:11:43;;;;;;;;;8.50;8.50;;;;;5.49;71.83;102752.13;6184212;23;47106;-83
2022/01/20 05:14:13;;;;;;;;;12.25;11.00;;;;;5.47;71.54;102753.78;6188250;22;45469;-83
2022/01/20 05:16:39;;;;;;;;;9.75;6.25;;;;;5.37;71.65;102732.34;6185074;23;45214;-83
2022/01/20 05:19:07;;;;;;;;;11.50;10.25;;;;;5.37;71.45;102737.56;6184563;23;45177;-83
2022/01/20 05:21:43;;;;;;;;;12.00;10.00;;;;;5.26;71.69;102729.19;6186534;23;47777;-82
2022/01/20 05:24:38;;;;;;;;;8.75;7.00;;;;;5.19;71.41;102719.28;6187785;22;45181;-84
2022/01/20 05:27:03;;;;;;;;;16.75;8.00;;;;;5.40;72.24;102769.06;6185842;23;45371;-84
2022/01/20 05:29:34;;;;;;;;;10.25;9.00;;;;;5.34;71.58;102760.94;6187971;23;45435;-83
2022/01/20 05:32:19;;;;;;;;;;;;;;;;;;;;;
2022/01/20 05:34:55;;;;;;;;;11.25;8.50;;;;;5.30;71.76;102767.72;6185227;23;71952;-83
2022/01/20 05:37:33;;;;;;;;;9.50;9.50;;;;;5.22;71.59;102754.28;6184264;23;45262;-83
2022/01/20 05:40:04;;;;;;;;;10.50;7.25;;;;;5.13;71.36;102743.34;6212810;22;45177;-84
2022/01/20 05:42:43;;;;;;;;;;;;;;;;;;;;;
2022/01/20 05:45:24;;;;;;;;;12.00;7.50;;;;;5.17;71.30;102768.81;6185222;23;72614;-84
2022/01/20 05:48:31;;;;;;;;;;;;;;;;;;;;;
2022/01/20 05:51:06;;;;;;;;;;;;;;;;;;;;;
2022/01/20 05:53:48;;;;;;;;;10.00;9.00;;;;;5.08;71.47;102771.84;6185154;23;75296;-84
2022/01/20 05:56:25;;;;;;;;;10.00;8.25;;;;;5.11;71.18;102784.16;6212349;22;45222;-83
2022/01/20 05:58:51;;;;;;;;;10.25;9.25;;;;;5.20;71.44;102805.50;6183978;23;45242;-83
2022/01/20 06:01:17;;;;;;;;;8.25;8.25;;;;;5.11;71.60;102797.22;6185941;23;45129;-83
2022/01/20 06:03:45;;;;;;;;;11.75;8.00;;;;;5.01;71.05;102782.78;6186433;23;46010;-83
2022/01/20 06:06:35;;;;;;;;;10.25;8.25;;;;;4.95;71.26;102781.59;6186839;23;45386;-83
2022/01/20 06:09:08;;;;;;;;;9.25;8.25;;;;;4.90;71.16;102781.34;6187126;22;45351;-83
2022/01/20 06:11:36;;;;;;;;;9.75;9.00;;;;;4.86;70.96;102764.63;6210004;22;45363;-84
2022/01/20 06:14:09;;;;;;;;;10.25;9.75;;;;;5.01;71.25;102803.66;6220190;22;45238;-84
2022/01/20 06:16:39;;;;;;;;;13.00;10.75;;;;;4.83;71.38;102774.88;6217915;22;45211;-84
2022/01/20 06:19:09;;;;;;;;;10.00;8.00;;;;;4.96;71.58;102788.59;6218086;22;45322;-84
2022/01/20 06:21:45;;;;;;;;;13.00;9.75;;;;;4.86;71.04;102780.28;6191018;22;45479;-84
2022/01/20 06:24:28;;;;;;;;;11.00;7.50;;;;;4.92;70.95;102797.06;6191843;22;47018;-84
2022/01/20 06:26:53;;;;;;;;;15.25;10.50;;;;;4.93;71.27;102793.66;6218111;22;45376;-85
2022/01/20 06:29:22;;;;;;;;;11.50;11.00;;;;;4.88;71.36;102785.56;6191933;22;45265;-85
2022/01/20 06:32:05;;;;;;;;;;;;;;;;;;;;;
2022/01/20 06:34:33;;;;;;;;;9.75;9.00;;;;;5.01;71.29;102810.59;6220980;22;75250;-84
2022/01/20 06:37:34;;;;;;;;;8.25;7.50;;;;;4.83;70.86;102787.03;6190400;22;45278;-84
2022/01/20 06:40:11;;;;;;;;;14.25;11.00;;;;;5.05;71.24;102822.97;6191999;22;45357;-84
2022/01/20 06:42:44;;;;;;;;;14.75;14.50;;;;;4.83;70.67;102794.88;6220566;22;45286;-84
2022/01/20 06:45:28;;;;;;;;;;;;;;;;;;;;;
2022/01/20 06:48:11;;;;;;;;;;;;;;;;;;;;;
2022/01/20 06:50:45;;;;;;;;;14.00;11.00;;;;;4.84;71.14;102823.66;6217072;22;68971;-84
2022/01/20 06:53:20;;;;;;;;;11.75;11.00;;;;;4.96;71.45;102846.00;6191961;22;45323;-86
2022/01/20 06:56:02;;;;;;;;;10.75;9.75;;;;;4.77;71.10;102829.34;6217799;22;46095;-84
2022/01/20 06:58:35;;;;;;;;;11.50;8.75;;;;;4.69;71.07;102829.78;6191245;22;45895;-85
2022/01/20 07:01:06;;;;;;;;;12.75;10.75;;;;;4.70;71.15;102837.66;6193715;22;45146;-85
2022/01/20 07:03:34;;;;;;;;;9.25;8.50;;;;;4.84;71.20;102856.69;6215272;22;45371;-85
2022/01/20 07:06:16;;;;;;;;;11.25;10.00;;;;;4.73;70.91;102836.94;6217499;22;45230;-85
2022/01/20 07:09:07;;;;;;;;;;;;;;;;;;;;;
2022/01/20 07:11:53;;;;;;;;;;;;;;;;;;;;;
2022/01/20 07:14:50;;;;;;;;;11.75;10.00;;;;;4.83;70.84;102884.47;6216041;22;71274;-86
2022/01/20 07:20:40;;;;;;;;;10.00;7.25;;;;;4.76;70.90;102889.31;6204368;22;45512;-83
2022/01/20 07:23:09;;;;;;;;;14.00;12.25;;;;;4.76;70.91;102890.19;6189841;22;45215;-83
2022/01/20 07:25:37;;;;;;;;;13.00;10.00;;;;;4.84;70.91;102904.56;6217276;22;45569;-84
2022/01/20 07:28:34;;;;;;;;;11.00;9.75;;;;;4.96;71.08;102906.03;6216831;22;45454;-84
2022/01/20 07:31:06;;;;;;;;;10.75;9.25;;;;;4.97;70.87;102913.97;6191702;22;45415;-82
2022/01/20 07:33:44;;;;;;;;;14.75;14.25;;;;;4.90;70.70;102906.59;6217311;22;45235;-82
2022/01/20 07:36:18;;;;;;;;;14.00;10.50;;;;;4.81;70.66;102887.81;6189661;22;45445;-82
2022/01/20 07:38:52;;;;;;;;;13.00;12.50;;;;;4.84;70.85;102886.28;6190816;22;47017;-82
2022/01/20 07:41:20;;;;;;;;;11.75;9.50;;;;;4.86;70.47;102894.19;6191252;22;45139;-81
2022/01/20 07:43:53;;;;;;;;;15.00;13.25;;;;;4.93;70.63;102893.72;6189546;22;45459;-83
2022/01/20 08:22:38;;;;;;;;;;;;;;;;;;;;;
2022/01/20 08:28:46;;;;;;;;;9.50;9.00;;;;;5.30;70.00;102912.25;5764244;24;45304;-86
2022/01/20 08:31:28;;;;;;;;;;;;;;;;;;;;;
2022/01/20 08:34:15;;;;;;;;;15.25;11.50;;;;;5.23;69.45;102886.59;6035875;23;72989;-89
2022/01/20 08:36:58;;;;;;;;;;;;;;;;;;;;;
2022/01/20 08:39:39;;;;;;;;;13.50;12.00;;;;;5.42;69.30;102918.91;6178034;23;72932;-85
2022/01/20 08:42:24;;;;;;;;;13.25;11.75;;;;;5.46;69.70;102923.50;6158722;23;46525;-85
2022/01/20 08:45:11;;;;;;;;;14.25;11.00;;;;;5.42;69.66;102905.84;6186186;23;45255;-86
2022/01/20 08:47:56;;;;;;;;;11.50;11.00;;;;;5.59;69.63;102931.16;6160979;23;45271;-86
2022/01/20 08:51:01;;;;;;;;;;;;;;;;;;;;;
2022/01/20 08:54:08;;;;;;;;;7.00;6.00;;;;;5.73;69.40;102940.59;6181026;23;75011;-85
2022/01/20 08:56:34;;;;;;;;;11.00;10.75;;;;;5.60;69.02;102911.16;6186374;23;45348;-85
2022/01/20 08:59:16;;;;;;;;;13.75;12.00;;;;;5.57;69.09;102901.44;6159028;23;45186;-85
2022/01/20 09:01:44;;;;;;;;;11.50;9.25;;;;;5.80;68.95;102935.69;6158625;23;45499;-85
2022/01/20 09:04:15;;;;;;;;;10.00;10.00;;;;;5.63;69.02;102900.84;6185546;23;45229;-85
2022/01/20 09:07:00;;;;;;;;;9.75;9.75;;;;;5.87;68.93;102945.63;6161492;23;45910;-86
2022/01/20 09:18:14;;;;;;;;;14.50;14.50;;;;;5.92;68.80;102941.53;6153391;23;45338;-85
2022/01/20 09:20:46;;;;;;;;;13.00;11.75;;;;;5.79;68.79;102906.03;6128224;23;45165;-85
2022/01/20 09:28:00;;;;;;;;;;;;;;;;;;;;;
2022/01/20 09:34:56;;;;;;;;;11.50;10.75;;;;;6.19;68.54;102986.53;5927066;23;45284;-88
2022/01/20 09:37:42;;;;;;;;;19.75;13.75;;;;;6.17;68.71;102977.69;6031135;23;45452;-85
2022/01/20 09:40:13;;;;;;;;;12.00;11.25;;;;;6.13;68.53;102968.81;6106489;22;47631;-86
2022/01/20 09:42:41;;;;;;;;;13.25;11.75;;;;;6.24;68.48;102979.81;6222139;22;45156;-93
2022/01/20 09:45:09;;;;;;;;;13.75;11.75;;;;;6.33;68.33;102987.22;6193730;22;45262;-94
2022/01/20 09:47:36;;;;;;;;;10.75;8.25;;;;;6.29;68.20;102973.09;6193049;22;45415;-93
2022/01/20 09:50:05;;;;;;;;;17.50;14.25;;;;;6.39;68.48;102977.06;6192509;22;47927;-92
2022/01/20 09:53:11;;;;;;;;;16.00;13.25;;;;;6.30;68.18;102950.44;6194205;22;46046;-93
2022/01/20 09:55:48;;;;;;;;;14.00;13.50;;;;;6.32;68.11;102952.31;6199111;22;45446;-95
2022/01/20 09:58:39;;;;;;;;;17.50;13.75;;;;;6.32;68.43;102943.56;6197921;22;45317;-93
2022/01/20 10:01:10;;;;;;;;;20.25;17.25;;;;;6.46;68.72;102944.25;6210565;22;47069;-90
2022/01/20 10:04:58;;;;;;;;;;;;;;;;;;;;;
2022/01/20 10:07:28;;;;;;;;;;;;;;;;;;;;;
2022/01/20 10:10:16;;;;;;;;;19.25;16.75;;;;;6.87;68.20;102990.75;6215846;22;72213;-92
2022/01/20 10:12:47;;;;;;;;;17.50;13.00;;;;;6.83;67.96;102965.22;6187816;23;46826;-91
2022/01/20 10:15:12;;;;;;;;;14.00;14.00;;;;;6.87;68.09;102974.13;6185902;23;45233;-92
2022/01/20 10:17:42;;;;;;;;;19.00;17.75;;;;;7.08;67.73;103011.78;6188663;23;44782;-91
2022/01/20 10:20:09;;;;;;;;;24.00;19.25;;;;;7.13;67.67;103015.53;6188650;23;45632;-91
2022/01/20 10:22:38;;;;;;;;;13.50;13.50;;;;;6.97;67.62;102985.09;6189130;23;46752;-87
2022/01/20 10:25:08;;;;;;;;;24.50;21.50;;;;;7.24;67.84;103021.28;6185405;23;45428;-87
2022/01/20 10:27:49;;;;;;;;;19.00;17.75;;;;;7.24;67.48;103010.78;6184115;23;45178;-90
2022/01/20 10:30:22;;;;;;;;;16.25;15.00;;;;;7.14;67.61;102980.66;6189615;22;45373;-93
2022/01/20 10:32:50;;;;;;;;;21.00;17.75;;;;;7.41;67.88;103015.09;6188231;23;48210;-90
2022/01/20 10:35:36;;;;;;;;;18.50;18.00;;;;;7.48;67.51;103022.44;6187752;23;45579;-93
2022/01/20 10:38:16;;;;;;;;;20.25;19.75;;;;;7.52;67.31;103018.22;6189269;23;45279;-89
2022/01/20 10:40:50;;;;;;;;;16.75;14.25;;;;;7.63;67.26;103027.44;6188872;23;45640;-89
2022/01/20 10:43:23;;;;;;;;;20.25;17.25;;;;;7.60;67.46;103011.59;6185766;23;47386;-90
2022/01/20 10:46:13;;;;;;;;;17.00;15.00;;;;;7.90;67.45;103029.50;6186082;23;45270;-88
2022/01/20 10:48:45;;;;;;;;;19.75;17.25;;;;;7.92;67.29;103020.88;6186439;23;45775;-91
2022/01/20 10:51:28;;;;;;;;;13.25;12.50;;;;;8.10;66.93;103033.91;6188439;23;45390;-89
2022/01/20 10:57:07;;;;;;;;;21.00;17.50;;;;;8.42;66.84;103026.56;6184346;23;45409;-87
2022/01/20 10:59:58;;;;;;;;;;;;;;;;;;;;;
2022/01/20 11:02:29;;;;;;;;;22.75;17.00;;;;;8.56;66.74;103027.13;6182321;23;71452;-83
2022/01/20 11:05:06;;;;;;;;;21.00;21.00;;;;;8.56;66.44;103014.88;6182222;23;45567;-84
2022/01/20 11:07:42;;;;;;;;;;;;;;;;;;;;;
2022/01/20 11:10:11;;;;;;;;;21.00;19.50;;;;;8.79;65.97;103025.41;6184974;23;68205;-87
2022/01/20 11:12:41;;;;;;;;;22.25;21.25;;;;;8.70;65.64;102998.81;6182136;23;45722;-88
2022/01/20 11:30:42;;;;;;;;;18.25;14.25;;;;;9.57;64.71;103011.78;6247570;22;45352;-86
2022/01/20 11:37:25;;;;;;;;;14.50;13.75;;;;;9.71;64.29;103007.94;6281832;22;45154;-91
2022/01/20 12:53:54;;;;;;;;;;;;;;;;;;;;;
2022/01/20 12:56:39;;;;;;;;;2.00;1.00;;;;;9.17;57.74;103003.31;6125850;23;74367;-89
2022/01/20 13:10:00;;;;;;;;;6.25;3.25;;;;;9.17;56.75;103002.41;5865989;23;45882;-83
2022/01/20 13:12:47;;;;;;;;;5.00;3.00;;;;;9.22;57.57;103000.84;6016402;23;45339;-86
2022/01/20 13:15:27;;;;;;;;;5.00;3.00;;;;;9.25;57.24;102996.63;6011628;23;45352;-84
2022/01/20 13:18:06;;;;;;;;;0.00;0.00;;;;;9.25;55.58;102982.59;6033623;23;45449;-83
2022/01/20 13:20:59;;;;;;;;;4.50;3.00;;;;;9.33;56.83;102977.59;6161936;22;46651;-85
2022/01/20 13:26:43;;;;;;;;;4.00;2.25;;;;;9.73;55.84;102995.75;6246358;22;45156;-85
2022/01/20 13:29:11;;;;;;;;;3.00;2.75;;;;;9.71;55.48;102979.91;6248273;22;45601;-86
2022/01/20 13:31:39;;;;;;;;;4.50;2.50;;;;;9.77;55.29;102981.84;6217340;22;47196;-84
2022/01/20 13:34:35;;;;;;;;;;;;;;;;;;;;;
2022/01/20 13:37:36;;;;;;;;;;;;;;;;;;;;;
2022/01/20 13:47:54;;;;;;;;;;;;;;;;;;;;;
2022/01/20 13:50:47;;;;;;;;;6.75;2.50;;;;;10.42;53.49;102958.66;6031407;23;67893;-87
2022/01/20 13:57:49;;;;;;;;;3.50;2.00;;;;;11.19;52.64;102954.03;6003096;23;45499;-90
2022/01/20 15:25:51;;;;;;;;;;;;;;;;;;;;;
2022/01/20 15:28:42;;;;;;;;;;;;;;;;;;;;;
2022/01/20 15:31:20;;;;;;;;;5.50;4.00;;;;;8.53;53.53;102985.91;6276891;22;74983;-91
2022/01/20 15:33:57;;;;;;;;;4.75;4.25;;;;;8.62;54.15;103022.13;6248660;22;45271;-89
2022/01/20 15:37:25;;;;;;;;;;;;;;;;;;;;;
2022/01/20 15:41:14;;;;;;;;;;;;;;;;;;;;;
2022/01/20 16:02:16;;;;;;;;;;;;;;;;;;;;;
2022/01/20 16:08:36;;;;;;;;;;;;;;;;;;;;;
2022/01/20 16:15:10;;;;;;;;;3.00;2.00;;;;;7.10;56.91;103036.34;5956964;23;45407;-88
2022/01/20 16:21:19;;;;;;;;;;;;;;;;;;;;;
2022/01/20 16:34:51;;;;;;;;;2.00;2.00;;;;;6.79;57.44;103061.06;5893971;24;45502;-88
2022/01/20 16:37:52;;;;;;;;;;;;;;;;;;;;;
2022/01/20 16:50:32;;;;;;;;;;;;;;;;;;;;;
2022/01/20 17:00:35;;;;;;;;;2.75;2.75;;;;;6.71;59.04;103111.22;5889233;24;45405;-87
2022/01/20 17:06:24;;;;;;;;;2.50;2.50;;;;;6.49;59.06;103093.53;5914436;23;45504;-85
2022/01/20 17:09:33;;;;;;;;;3.00;3.00;;;;;6.61;59.49;103136.94;6002472;23;45437;-88
2022/01/20 17:16:07;;;;;;;;;3.75;3.75;;;;;6.44;59.66;103116.84;6038598;23;45525;-88
2022/01/20 17:18:43;;;;;;;;;;;;;;;;;;;;;
2022/01/20 17:28:07;;;;;;;;;5.00;3.00;;;;;6.54;59.68;103140.03;6184314;22;45888;-88
2022/01/20 17:30:50;;;;;;;;;3.00;3.00;;;;;6.51;59.95;103142.50;6218884;22;45403;-88
2022/01/20 17:33:59;;;;;;;;;2.00;2.00;;;;;6.32;59.88;103122.34;6218238;22;45258;-88
2022/01/20 17:36:25;;;;;;;;;3.00;3.00;;;;;6.41;60.20;103132.38;6220150;22;45363;-89
2022/01/20 17:38:53;;;;;;;;;8.00;6.50;;;;;6.34;60.12;103130.28;6219977;22;47120;-87
2022/01/20 17:44:57;;;;;;;;;2.00;2.00;;;;;6.28;60.14;103141.34;6169565;22;45518;-88
2022/01/20 17:48:11;;;;;;;;;7.50;5.75;;;;;6.41;60.04;103153.31;6219027;22;45370;-92
2022/01/20 17:51:10;;;;;;;;;;;;;;;;;;;;;
2022/01/20 17:53:51;;;;;;;;;6.00;6.00;;;;;6.34;60.32;103135.53;6191443;22;72709;-88
2022/01/20 17:56:26;;;;;;;;;;;;;;;;;;;;;
2022/01/20 17:58:55;;;;;;;;;4.75;2.75;;;;;6.33;60.21;103137.22;6246057;22;71065;-87
2022/01/20 18:01:33;;;;;;;;;;;;;;;;;;;;;
2022/01/20 18:04:01;;;;;;;;;5.25;5.25;;;;;6.29;60.39;103131.75;6247293;22;71550;-85
2022/01/20 18:06:49;;;;;;;;;6.00;5.75;;;;;6.36;60.60;103160.03;6221037;22;45353;-87
2022/01/20 18:09:18;;;;;;;;;10.25;7.25;;;;;6.24;60.58;103149.81;6218379;22;45387;-89
2022/01/20 18:11:47;;;;;;;;;6.75;6.00;;;;;6.34;60.64;103166.91;6221869;22;47202;-88
2022/01/20 18:14:20;;;;;;;;;6.00;5.50;;;;;6.34;60.77;103161.69;6220072;22;45395;-87
2022/01/20 18:16:47;;;;;;;;;10.00;8.50;;;;;6.26;60.90;103148.19;6246872;22;45203;-84
2022/01/20 18:19:21;;;;;;;;;11.00;8.00;;;;;6.24;60.87;103152.44;6216699;22;45422;-84
2022/01/20 18:21:54;;;;;;;;;7.00;6.25;;;;;6.40;60.90;103185.53;6250341;22;45307;-90
2022/01/20 18:24:22;;;;;;;;;10.75;7.00;;;;;6.36;60.84;103174.03;6250382;22;45340;-86
2022/01/20 18:26:47;;;;;;;;;13.50;13.25;;;;;6.24;60.63;103156.78;6249109;22;45338;-83
2022/01/20 18:29:34;;;;;;;;;11.25;10.00;;;;;6.26;60.81;103161.28;6250067;22;45315;-83
2022/01/20 18:32:15;;;;;;;;;;;;;;;;;;;;;
2022/01/20 18:34:46;;;;;;;;;10.25;7.75;;;;;6.35;61.17;103190.53;6276744;22;72845;-88
2022/01/20 18:37:35;;;;;;;;;9.50;7.50;;;;;6.24;61.30;103169.84;6250944;22;45265;-86
2022/01/20 18:40:05;;;;;;;;;12.25;8.25;;;;;6.12;61.49;103162.22;6250949;22;45606;-89
2022/01/20 18:42:32;;;;;;;;;13.00;8.50;;;;;6.12;61.35;103170.06;6247816;22;46708;-85
2022/01/20 18:44:57;;;;;;;;;12.75;12.00;;;;;6.17;61.32;103187.84;6248770;22;45362;-82
2022/01/20 18:47:33;;;;;;;;;10.00;10.00;;;;;6.24;61.62;103199.53;6277977;22;45249;-84
2022/01/20 18:50:06;;;;;;;;;6.75;6.75;;;;;6.24;61.32;103199.53;6277780;22;45235;-83
2022/01/20 18:52:31;;;;;;;;;10.25;10.25;;;;;6.15;61.53;103193.81;6250099;22;47016;-83
2022/01/20 18:55:08;;;;;;;;;15.75;11.00;;;;;6.27;61.55;103217.09;6256292;22;45441;-83
2022/01/20 18:57:34;;;;;;;;;9.00;8.50;;;;;6.15;61.49;103189.47;6253097;22;45191;-83
2022/01/20 19:00:03;;;;;;;;;11.50;10.00;;;;;6.29;61.41;103220.69;6249743;22;45166;-83
2022/01/20 19:02:31;;;;;;;;;13.00;10.50;;;;;6.11;61.29;103190.09;6276351;22;45496;-84
2022/01/20 19:05:04;;;;;;;;;12.00;10.75;;;;;6.14;61.38;103203.34;6249854;22;45221;-83
2022/01/20 19:07:32;;;;;;;;;12.00;10.25;;;;;6.11;61.50;103205.78;6249037;22;45402;-83
2022/01/20 19:10:03;;;;;;;;;11.50;7.00;;;;;6.27;61.22;103232.78;6277397;22;45187;-83
2022/01/20 19:12:30;;;;;;;;;5.00;5.00;;;;;6.15;61.24;103220.84;6249128;22;46303;-83
2022/01/20 19:15:05;;;;;;;;;8.75;7.00;;;;;6.08;61.29;103212.59;6250019;22;45252;-83
2022/01/20 19:17:35;;;;;;;;;9.00;8.00;;;;;6.03;61.55;103206.19;6277708;22;45277;-83
2022/01/20 19:20:03;;;;;;;;;7.50;6.00;;;;;5.95;61.48;103196.22;6250174;22;45410;-83
2022/01/20 19:22:28;;;;;;;;;11.50;10.00;;;;;6.07;61.63;103221.25;6245925;22;46577;-83
2022/01/20 19:24:56;;;;;;;;;7.75;7.25;;;;;6.06;61.69;103211.59;6255277;22;45337;-83
2022/01/20 19:28:28;;;;;;;;;;;;;;;;;;;;;
2022/01/20 19:30:39;;;;;;;;;9.00;6.50;;;;;6.05;61.88;103220.28;6235472;22;45315;-83
2022/01/20 19:33:05;;;;;;;;;6.25;6.00;;;;;6.06;61.72;103233.41;6246044;22;45278;-85
2022/01/20 19:35:41;;;;;;;;;6.75;6.75;;;;;6.04;61.83;103223.69;6246624;22;45194;-87
2022/01/20 19:41:29;;;;;;;;;7.00;5.00;;;;;6.09;61.86;103225.72;6202088;22;45641;-88
2022/01/20 19:44:12;;;;;;;;;10.50;7.50;;;;;6.01;62.07;103213.94;6246098;22;47367;-91
2022/01/20 19:46:38;;;;;;;;;9.00;7.00;;;;;5.96;61.76;103204.94;6218379;22;45198;-87
2022/01/20 19:49:04;;;;;;;;;14.75;13.00;;;;;6.09;61.87;103222.22;6216246;22;45773;-84
2022/01/20 19:51:34;;;;;;;;;15.25;10.50;;;;;6.07;61.89;103205.56;6215781;22;45636;-83
2022/01/20 19:54:07;;;;;;;;;12.75;12.00;;;;;6.20;61.90;103228.94;6215056;22;48110;-84
2022/01/20 19:56:43;;;;;;;;;9.25;7.25;;;;;6.17;61.63;103214.00;6242199;22;45392;-86
2022/01/20 19:59:16;;;;;;;;;7.75;6.50;;;;;6.03;61.58;103194.03;6243085;22;45871;-85
2022/01/20 20:01:52;;;;;;;;;10.75;10.50;;;;;6.11;61.75;103220.59;6221095;22;44924;-87
2022/01/20 20:05:11;;;;;;;;;;;;;;;;;;;;;
2022/01/20 20:07:42;;;;;;;;;8.75;8.50;;;;;6.08;61.58;103225.66;6235121;22;72818;-86
2022/01/20 20:10:09;;;;;;;;;16.00;15.00;;;;;5.97;61.47;103204.16;6217607;22;45422;-86
2022/01/20 20:12:38;;;;;;;;;7.25;7.25;;;;;6.02;61.87;103213.16;6217032;22;46042;-82
2022/01/20 20:15:11;;;;;;;;;12.50;7.00;;;;;6.16;61.64;103235.72;6216115;22;47156;-85
2022/01/20 20:17:37;;;;;;;;;7.25;6.50;;;;;6.16;61.76;103238.34;6244152;22;45665;-85
2022/01/20 20:20:13;;;;;;;;;9.00;7.75;;;;;6.01;61.97;103208.72;6215588;22;45408;-85